Arthur, TN

7:13 PM EST on February 01, 2015 (GMT -0500)
Middlesboro | Change Station
CLOSE
Current Station
Airport
Location: Middlesboro,
Elevation: 1155 ft
Nearby Weather Stations

Elev 1155 ft 36.61 °N, 83.74 °W | Updated 18 minutes ago

Rain
Rain
43 °F
Feels Like 43 °F
N
0
Wind Variable Wind from North

Today
High -- | Low -- °F
--% Chance of Precip.
Yesterday
High -- | Low -- °F
Precip. -- in
7:35 AM 6:00 PM
Waxing Gibbous, 96% visible
Pressure 29.78 in
Visibility 7.0 miles
Clouds Overcast 1500 ft
Dew Point 41 °F
Humidity 94%
Rainfall 0.09 in
Snow Depth Not available.
UV 0 out of 12
Pollen .60 out of 12
Air Quality Not available.
Flu Activity Not available.
METAR K1A6 012355Z AUTO 00000KT 7SM -RA OVC015 06/05 A2978 RMK AO2 P0002 60006 T00600051 10080 20060

More Conditions Fewer Conditions

Pressure 29.78 in
Visibility 7.0 miles
Clouds Overcast 1500 ft
Dew Point 41 °F
Humidity 94%
Rainfall 0.09 in
Snow Depth Not available.
UV 0 out of 12
Pollen .60 out of 12
Air Quality Not available.
Flu Activity Not available.
METAR K1A6 012355Z AUTO 00000KT 7SM -RA OVC015 06/05 A2978 RMK AO2 P0002 60006 T00600051 10080 20060

More Conditions Fewer Conditions

10-Day Weather Forecast

Almanac

Astronomy

Feb. 01, 2015 Rise Set
Actual Time
Civil Twilight
Nautical Twilight
Astronomical Twilight
Moon
Length of Visible Light
Length of Day
Tomorrow will be .
, % of the Moon is Illuminated

Today's Extremes

State Highs State Lows

Community

WunderPhotos

Upload Photos

1,792,619 photos uploaded!

WunderBlogs® & News

Nearby

Air Quality

  Air Quality AQ Index Pollutant
Not available.

Snow Depth

Station Depth Elevation

Earthquake Activity

City Distance Mag. Time & Date
Minimum magnitude displayed is 2.5.

Coastal Water Temperatures

Place Temperature

Nearby Weather Stations